General Aviation Weather

Text Reports

Enter one or more of the following location identifiers separated by a space:

Zip Code, Four-Character ICAO or Three-Character IATA airport codes.

METAR - Aviation Routine Weather Report
KSCH - Schenectady, New York
Updated at 5:55 PM GMT on April 20, 2014 (1:55 PM EDT):
METAR KSCH 201755Z 00000KT 10SM CLR 14/M08 A3041
TAF - Terminal Area Forecast
KSCH - Schenectady, New York
Updated at 5:55 PM GMT on April 20, 2014 (1:55 PM EDT):
No TAF is currently available for this location.
Decoded:
No decoded TAF is available.
PIREP - Pilot Weather Report
KSCH - Schenectady, New York
Updated at 5:55 PM GMT on April 20, 2014 (1:55 PM EDT):
No PIREP is currently available for this location.
AIRMET - Airmens Meteorological Information
KSCH - Schenectady, New York
Updated at 5:55 PM GMT on April 20, 2014 (1:55 PM EDT):
No AIRMET is currently available for this location.
SIGMET - Significant Meteorological Information
KSCH - Schenectady, New York
Updated at 5:55 PM GMT on April 20, 2014 (1:55 PM EDT):
No SIGMET is currently available for this location.
NOTAM - Notice to Airmen
KSCH - Schenectady, New York
Updated at 5:55 PM GMT on April 20, 2014 (1:55 PM EDT):
No NOTAM is currently available for this location.
Forecast Area
KSCH - Schenectady, New York
Updated at 5:55 PM GMT on April 20, 2014 (1:55 PM EDT):
No NOTAM is currently available for this location.
Aviation Weather Maps